| time (UTC) | temp C | wind direction | speed KPH | gust KPH | rain 1hr cm | rain 24hr cm | rain mn cm | humidity % | barometer mb |
| 20260906070020 | -17 | 42 | 3.2 | 14.5 | 0.00 | 0.00 | 0.00 | 96 | |
| 20260906065520 | -17 | 50 | 3.2 | 8.0 | 0.00 | 0.00 | 0.00 | 96 | |
| 20260906065020 | -17 | 59 | 3.2 | 9.7 | 0.00 | 0.00 | 0.00 | 96 | |
| 20260906064519 | -17 | 79 | 4.8 | 17.7 | 0.00 | 0.00 | 0.00 | 96 | |
| 20260906064021 | -17 | 35 | 3.2 | 9.7 | 0.00 | 0.00 | 0.00 | 96 | |
| 20260906063535 | -17 | 12 | 1.6 | 3.2 | 0.00 | 0.00 | 0.00 | 96 | |
| 20260906063019 | -17 | 6 | 1.6 | 4.8 | 0.00 | 0.00 | 0.00 | 96 | |
| 20260906062520 | -17 | 33 | 1.6 | 3.2 | 0.00 | 0.00 | 0.00 | 96 | |
| 20260906062020 | -17 | 36 | 1.6 | 3.2 | 0.10 | 0.00 | 0.00 | 96 | |
| 20260906061520 | -17 | 13 | 1.6 | 4.8 | 0.10 | 0.00 | 0.00 | 96 | |
| 20260906061020 | -17 | 13 | 1.6 | 4.8 | 0.10 | 0.00 | 0.00 | 96 | |
| 20260906060523 | -17 | 26 | 3.2 | 9.7 | 0.03 | 0.00 | 0.00 | 96 | |
| 20260906060020 | -17 | 40 | 3.2 | 8.0 | 0.00 | 0.00 | 0.00 | 96 | |
| 20260906055520 | -17 | 107 | 3.2 | 8.0 | 0.00 | 0.00 | 0.00 | 96 | |
| 20260906055017 | -17 | 109 | 3.2 | 11.3 | 0.00 | 0.00 | 0.00 | 96 | |
| 20260906054521 | -17 | 92 | 3.2 | 8.0 | 0.00 | 0.00 | 0.00 | 96 | |
| 20260906054020 | -17 | 97 | 4.8 | 11.3 | 0.00 | 0.00 | 0.00 | 96 | |
| 20260906053521 | -17 | 28 | 3.2 | 9.7 | 0.00 | 0.00 | 0.00 | 96 | |
| 20260906053017 | -17 | 17 | 3.2 | 6.4 | 0.00 | 0.00 | 0.00 | 96 | |
| 20260906052517 | -17 | 11 | 0.0 | 3.2 | 0.00 | 0.00 | 0.00 | 96 | |
| 20260906052017 | -17 | 20 | 1.6 | 3.2 | 0.00 | 0.00 | 0.00 | 96 | |
| 20260906051518 | -17 | 0.0 | 0.0 | 0.00 | 0.00 | 0.00 | 96 | ||
| 20260906051017 | -17 | 0.0 | 0.0 | 0.00 | 0.00 | 0.00 | 96 | ||
| 20260906050519 | -17 | 0.0 | 0.0 | 0.00 | 0.00 | 0.00 | 96 | ||
| 20260906050018 | -17 | 0.0 | 0.0 | 0.00 | 0.00 | 0.00 | 96 | ||
| 20260906045517 | -17 | 0.0 | 0.0 | 0.00 | 0.00 | 0.00 | 96 | ||
| 20260906045020 | -17 | 23 | 1.6 | 3.2 | 0.00 | 0.00 | 0.00 | 96 | |
| 20260906044518 | -17 | 358 | 1.6 | 3.2 | 0.00 | 0.00 | 0.00 | 96 | |
| 20260906044018 | -17 | 4 | 0.0 | 3.2 | 0.00 | 0.00 | 0.00 | 96 | |
| 20260906043517 | -17 | 0.0 | 0.0 | 0.00 | 0.00 | 0.00 | 96 | ||
| 20260906043017 | -17 | 0.0 | 0.0 | 0.00 | 0.00 | 0.00 | 96 | ||
| 20260906042518 | -17 | 0.0 | 0.0 | 0.00 | 0.00 | 0.00 | 96 | ||
| 20260906042018 | -17 | 0.0 | 0.0 | 0.00 | 0.00 | 0.00 | 96 | ||
| 20260906041518 | -17 | 4 | 0.0 | 3.2 | 0.00 | 0.00 | 0.00 | 96 | |
| 20260906041018 | -17 | 3 | 0.0 | 3.2 | 0.00 | 0.00 | 0.00 | 96 | |
| 20260906040534 | -17 | 11 | 0.0 | 3.2 | 0.00 | 0.00 | 0.00 | 96 | |
| 20260906040017 | -17 | 8 | 1.6 | 3.2 | 0.00 | 0.00 | 0.00 | 96 | |
| 20260906035518 | -17 | 10 | 1.6 | 3.2 | 0.00 | 0.00 | 0.00 | 96 | |
| 20260906035022 | -17 | 0.0 | 0.0 | 0.00 | 0.00 | 0.00 | 96 | ||
| 20260906034522 | -17 | 0.0 | 0.0 | 0.00 | 0.00 | 0.00 | 96 | ||
| 20260906034022 | -17 | 0.0 | 0.0 | 0.00 | 0.00 | 0.00 | 96 | ||
| 20260906033519 | -17 | 0.0 | 0.0 | 0.00 | 0.00 | 0.00 | 96 | ||
| 20260906033018 | -17 | 16 | 1.6 | 3.2 | 0.00 | 0.00 | 0.00 | 96 | |
| 20260906032519 | -17 | 20 | 1.6 | 3.2 | 0.00 | 0.00 | 0.00 | 96 | |
| 20260906032018 | -17 | 0.0 | 0.0 | 0.00 | 0.00 | 0.00 | 96 | ||
| 20260906031519 | -17 | 0.0 | 0.0 | 0.00 | 0.00 | 0.00 | 96 | ||
| 20260906031018 | -17 | 0.0 | 0.0 | 0.00 | 0.00 | 0.00 | 96 | ||
| 20260906030519 | -17 | 0.0 | 0.0 | 0.00 | 0.00 | 0.00 | 96 | ||
| 20260906030019 | -17 | 0.0 | 0.0 | 0.00 | 0.00 | 0.00 | 96 | ||
| 20260906025518 | -17 | 140 | 0.0 | 1.6 | 0.00 | 0.00 | 0.00 | 96 | |
| 20260906025018 | -17 | 0.0 | 0.0 | 0.00 | 0.00 | 0.00 | 96 | ||
| 20260906024524 | -17 | 0.0 | 0.0 | 0.00 | 0.00 | 0.00 | 96 | ||
| 20260906024023 | -17 | 13 | 0.0 | 3.2 | 0.00 | 0.00 | 0.00 | 96 | |
| 20260906023518 | -17 | 0.0 | 0.0 | 0.00 | 0.00 | 0.00 | 96 | ||
| 20260906023039 | -17 | 0.0 | 0.0 | 0.00 | 0.00 | 0.00 | 96 | ||
| 20260906022523 | -17 | 0.0 | 0.0 | 0.00 | 0.00 | 0.00 | 96 | ||
| 20260906022019 | -17 | 0.0 | 0.0 | 0.00 | 0.00 | 0.00 | 96 | ||
| 20260906021519 | -17 | 0.0 | 0.0 | 0.00 | 0.00 | 0.00 | 96 | ||
| 20260906021020 | -17 | 0.0 | 0.0 | 0.00 | 0.00 | 0.00 | 96 | ||
| 20260906020519 | -17 | 0.0 | 0.0 | 0.00 | 0.00 | 0.00 | 96 | ||
| 20260906020018 | -17 | 0.0 | 0.0 | 0.00 | 0.00 | 0.00 | 96 | ||
| 20260906015519 | -17 | 95 | 0.0 | 1.6 | 0.00 | 0.00 | 0.00 | 96 | |
| 20260906015020 | -17 | 0.0 | 0.0 | 0.00 | 0.00 | 0.00 | 96 | ||
| 20260906014520 | -17 | 0.0 | 0.0 | 0.00 | 0.00 | 0.00 | 96 | ||
| 20260906014019 | -17 | 0.0 | 0.0 | 0.00 | 0.00 | 0.00 | 96 | ||
| 20260906013521 | -17 | 0.0 | 0.0 | 0.00 | 0.00 | 0.00 | 96 | ||
| 20260906013019 | -17 | 15 | 1.6 | 3.2 | 0.00 | 0.00 | 0.00 | 96 | |
| 20260906012520 | -17 | 35 | 3.2 | 3.2 | 0.00 | 0.00 | 0.00 | 96 | |
| 20260906012021 | -17 | 29 | 1.6 | 3.2 | 0.00 | 0.00 | 0.00 | 96 | |
| 20260906011521 | -17 | 0.0 | 0.0 | 0.00 | 0.00 | 0.00 | 96 | ||
| 20260906011021 | -17 | 11 | 3.2 | 3.2 | 0.00 | 0.00 | 0.00 | 96 | |
| 20260906010520 | -17 | 8 | 3.2 | 4.8 | 0.00 | 0.00 | 0.00 | 96 | |
| 20260906010019 | -17 | 6 | 1.6 | 3.2 | 0.00 | 0.00 | 0.00 | 96 | |
| 20260906005520 | -17 | 21 | 0.0 | 1.6 | 0.00 | 0.00 | 0.00 | 96 | |
| 20260906005020 | -17 | 24 | 1.6 | 3.2 | 0.00 | 0.00 | 0.00 | 96 | |
| 20260906004519 | -17 | 17 | 1.6 | 4.8 | 0.00 | 0.00 | 0.00 | 96 | |
| 20260906004017 | -17 | 10 | 1.6 | 4.8 | 0.00 | 0.00 | 0.00 | 96 | |
| 20260906003521 | -17 | 0.0 | 0.0 | 0.00 | 0.00 | 0.00 | 96 | ||
| 20260906003020 | -17 | 360 | 0.0 | 0.0 | 0.00 | 0.00 | 0.00 | 96 | |
| 20260906002520 | -17 | 357 | 0.0 | 3.2 | 0.00 | 0.00 | 0.00 | 96 | |
| 20260906002020 | -17 | 358 | 0.0 | 3.2 | 0.00 | 0.00 | 0.00 | 96 | |
| 20260906001520 | -17 | 34 | 1.6 | 3.2 | 0.00 | 0.00 | 0.00 | 96 | |
| 20260906001021 | -17 | 44 | 0.0 | 1.6 | 0.00 | 0.00 | 0.00 | 96 | |
| 20260906000520 | -17 | 4 | 0.0 | 1.6 | 0.00 | 0.00 | 0.00 | 96 | |
| 20260906000020 | -17 | 0.0 | 0.0 | 0.00 | 0.00 | 0.00 | 96 | ||
| 20260905235524 | -17 | 0.0 | 0.0 | 0.00 | 0.00 | 0.00 | 96 | ||
| 20260905235021 | -17 | 5 | 1.6 | 3.2 | 0.00 | 0.00 | 0.00 | 96 | |
| 20260905234520 | -17 | 16 | 1.6 | 3.2 | 0.23 | 0.00 | 0.00 | 96 | |
| 20260905234020 | -17 | 23 | 1.6 | 3.2 | 1.40 | 0.00 | 0.00 | 96 | |
| 20260905233520 | -17 | 30 | 1.6 | 6.4 | 3.00 | 0.00 | 0.00 | 96 | |
| 20260905233021 | -17 | 68 | 3.2 | 6.4 | 4.24 | 0.00 | 0.00 | 96 | |
| 20260905232521 | -17 | 106 | 4.8 | 11.3 | 3.51 | 0.00 | 0.00 | 96 | |
| 20260905232020 | -17 | 79 | 6.4 | 12.9 | 2.08 | 0.00 | 0.00 | 96 | |
| 20260905231521 | -17 | 349 | 6.4 | 22.5 | 0.81 | 0.00 | 0.00 | 96 | |
| 20260905231021 | -17 | 340 | 3.2 | 12.9 | 0.41 | 0.00 | 0.00 | 96 | |
| 20260905230521 | -17 | 328 | 3.2 | 8.0 | 0.15 | 0.00 | 0.00 | 96 | |
| 20260905230020 | -17 | 23 | 3.2 | 11.3 | 0.00 | 0.00 | 0.00 | 96 | |
| 20260905225522 | -17 | 57 | 4.8 | 9.7 | 0.00 | 0.00 | 0.00 | 96 | |
| 20260905225022 | -17 | 4 | 0.0 | 6.4 | 0.00 | 0.00 | 0.00 | 96 | |
| 20260905224521 | -17 | 0.0 | 0.0 | 0.00 | 0.00 | 0.00 | 96 | ||
| 20260905224021 | -17 | 0.0 | 0.0 | 0.00 | 0.00 | 0.00 | 96 | ||
| 20260905223522 | -17 | 0.0 | 0.0 | 0.00 | 0.00 | 0.00 | 96 | ||
| 20260905223021 | -17 | 0.0 | 0.0 | 0.00 | 0.00 | 0.00 | 96 | ||
| 20260905222519 | -17 | 0.0 | 0.0 | 0.00 | 0.00 | 0.00 | 96 | ||
| 20260905222019 | -17 | 359 | 0.0 | 3.2 | 0.00 | 0.00 | 0.00 | 96 | |
| 20260905221518 | -17 | 0.0 | 0.0 | 0.00 | 0.00 | 0.00 | 96 | ||
| 20260905221019 | -17 | 18 | 0.0 | 3.2 | 0.00 | 0.00 | 0.00 | 96 | |
| 20260905220519 | -17 | 0.0 | 0.0 | 0.00 | 0.00 | 0.00 | 96 | ||
| 20260905220019 | -17 | 0.0 | 0.0 | 0.00 | 0.00 | 0.00 | 96 | ||
| 20260905215519 | -17 | 305 | 1.6 | 4.8 | 0.00 | 0.00 | 0.00 | 96 | |
| 20260905215019 | -17 | 313 | 1.6 | 6.4 | 0.00 | 0.00 | 0.00 | 96 | |
| 20260905214519 | -17 | 24 | 0.0 | 4.8 | 0.00 | 0.00 | 0.00 | 96 | |
| 20260905214020 | -17 | 18 | 0.0 | 4.8 | 0.00 | 0.00 | 0.00 | 96 | |
| 20260905213521 | -17 | 303 | 0.0 | 3.2 | 0.00 | 0.00 | 0.00 | 96 | |
| 20260905213018 | -17 | 250 | 3.2 | 6.4 | 0.00 | 0.00 | 0.00 | 96 | |
| 20260905212519 | -17 | 298 | 1.6 | 8.0 | 0.00 | 0.00 | 0.00 | 96 | |
| 20260905211519 | -17 | 345 | 1.6 | 4.8 | 0.00 | 0.00 | 0.00 | 96 | |
| 20260905211018 | -17 | 7 | 1.6 | 6.4 | 0.00 | 0.00 | 0.00 | 96 | |
| 20260905210519 | -17 | 29 | 1.6 | 6.4 | 0.00 | 0.00 | 0.00 | 96 | |
| 20260905210020 | -17 | 306 | 0.0 | 4.8 | 0.00 | 0.00 | 0.00 | 96 | |
| 20260905205518 | -17 | 336 | 1.6 | 6.4 | 0.00 | 0.00 | 0.00 | 96 | |
| 20260905205019 | -17 | 330 | 1.6 | 4.8 | 0.00 | 0.00 | 0.00 | 96 | |
| 20260905204519 | -17 | 15 | 1.6 | 8.0 | 0.00 | 0.00 | 0.00 | 96 | |
| 20260905204019 | -17 | 10 | 1.6 | 8.0 | 0.00 | 0.00 | 0.00 | 96 | |
| 20260905203520 | -17 | 320 | 1.6 | 8.0 | 0.00 | 0.00 | 0.00 | 96 | |
| 20260905203018 | -17 | 360 | 3.2 | 8.0 | 0.00 | 0.00 | 0.00 | 96 | |
| 20260905202520 | -17 | 31 | 3.2 | 8.0 | 0.00 | 0.00 | 0.00 | 96 | |
| 20260905202019 | -17 | 335 | 1.6 | 6.4 | 0.00 | 0.00 | 0.00 | 96 | |
| 20260905201519 | -17 | 270 | 3.2 | 11.3 | 0.00 | 0.00 | 0.00 | 96 | |
| 20260905201019 | -17 | 342 | 1.6 | 8.0 | 0.00 | 0.00 | 0.00 | 96 | |
| 20260905200519 | -17 | 275 | 1.6 | 6.4 | 0.00 | 0.00 | 0.00 | 96 | |
| 20260905200019 | -17 | 308 | 1.6 | 6.4 | 0.00 | 0.00 | 0.00 | 96 | |
| 20260905195519 | -17 | 356 | 1.6 | 8.0 | 0.00 | 0.00 | 0.00 | 96 | |
| 20260905195020 | -17 | 272 | 3.2 | 11.3 | 0.00 | 0.00 | 0.00 | 96 | |
| 20260905194519 | -17 | 13 | 3.2 | 8.0 | 0.00 | 0.00 | 0.00 | 96 | |
| 20260905194020 | -17 | 279 | 1.6 | 6.4 | 0.00 | 0.00 | 0.00 | 96 | |
| 20260905193520 | -17 | 34 | 1.6 | 8.0 | 0.00 | 0.00 | 0.00 | 96 | |
| 20260905193020 | -17 | 20 | 1.6 | 8.0 | 0.00 | 0.00 | 0.00 | 96 | |
| 20260905192519 | -17 | 359 | 1.6 | 4.8 | 0.00 | 0.00 | 0.00 | 96 | |
| 20260905192020 | -17 | 315 | 1.6 | 9.7 | 0.00 | 0.00 | 0.00 | 96 | |
| 20260905191519 | -17 | 295 | 1.6 | 4.8 | 0.00 | 0.00 | 0.00 | 96 | |
| 20260905191031 | -17 | 265 | 1.6 | 4.8 | 0.00 | 0.00 | 0.00 | 96 | |
| 20260905190525 | -17 | 288 | 1.6 | 8.0 | 0.00 | 0.00 | 0.00 | 96 | |
| 20260905190020 | -17 | 273 | 1.6 | 6.4 | 0.00 | 0.00 | 0.00 | 96 | |
| 20260905185520 | -17 | 21 | 1.6 | 8.0 | 0.00 | 0.00 | 0.00 | 96 | |
| 20260905185019 | -17 | 148 | 1.6 | 4.8 | 0.00 | 0.00 | 0.00 | 96 | |
| 20260905184520 | -17 | 338 | 0.0 | 4.8 | 0.00 | 0.00 | 0.00 | 96 | |
| 20260905184021 | -17 | 25 | 1.6 | 8.0 | 0.00 | 0.00 | 0.00 | 96 | |
| 20260905183519 | -17 | 266 | 1.6 | 6.4 | 0.00 | 0.00 | 0.00 | 96 | |
| 20260905183020 | -17 | 256 | 4.8 | 8.0 | 0.00 | 0.00 | 0.00 | 96 | |
| 20260905182521 | -17 | 314 | 3.2 | 8.0 | 0.00 | 0.00 | 0.00 | 96 | |
| 20260905182020 | -17 | 288 | 1.6 | 4.8 | 0.00 | 0.00 | 0.00 | 96 | |
| 20260905181520 | -17 | 287 | 0.0 | 4.8 | 0.00 | 0.00 | 0.00 | 96 | |
| 20260905181021 | -17 | 351 | 1.6 | 8.0 | 0.00 | 0.00 | 0.00 | 96 | |
| 20260905180520 | -17 | 167 | 1.6 | 9.7 | 0.00 | 0.00 | 0.00 | 96 | |
| 20260905180020 | -17 | 293 | 1.6 | 4.8 | 0.00 | 0.00 | 0.00 | 96 | |
| 20260905175520 | -17 | 14 | 1.6 | 8.0 | 0.00 | 0.00 | 0.00 | 96 | |
| 20260905175023 | -17 | 325 | 1.6 | 6.4 | 0.43 | 0.00 | 0.00 | 96 | |
| 20260905174517 | -17 | 249 | 3.2 | 8.0 | 0.58 | 0.00 | 0.00 | 96 | |
| 20260905174020 | -17 | 248 | 3.2 | 8.0 | 0.58 | 0.00 | 0.00 | 96 | |
| 20260905173517 | -17 | 180 | 1.6 | 4.8 | 0.13 | 0.00 | 0.00 | 96 | |
| 20260905173018 | -17 | 300 | 1.6 | 8.0 | 0.00 | 0.00 | 0.00 | 96 | |
| 20260905172517 | -17 | 203 | 1.6 | 6.4 | 0.03 | 0.00 | 0.00 | 96 | |
| 20260905172018 | -17 | 317 | 3.2 | 6.4 | 0.03 | 0.00 | 0.00 | 96 | |
| 20260905171518 | -17 | 238 | 3.2 | 9.7 | 0.03 | 0.00 | 0.00 | 96 | |
| 20260905171019 | -17 | 52 | 1.6 | 6.4 | 0.00 | 0.00 | 0.00 | 96 | |
| 20260905170518 | -17 | 299 | 3.2 | 9.7 | 0.00 | 0.00 | 0.00 | 96 | |
| 20260905170017 | -17 | 328 | 0.0 | 4.8 | 0.00 | 0.00 | 0.00 | 96 | |
| 20260905165519 | -17 | 25 | 1.6 | 9.7 | 0.00 | 0.00 | 0.00 | 96 | |
| 20260905165018 | -17 | 12 | 0.0 | 4.8 | 0.00 | 0.00 | 0.00 | 96 | |
| 20260905164518 | -17 | 19 | 1.6 | 4.8 | 0.00 | 0.00 | 0.00 | 96 | |
| 20260905164019 | -17 | 262 | 1.6 | 6.4 | 0.00 | 0.00 | 0.00 | 96 | |
| 20260905163518 | -17 | 318 | 0.0 | 4.8 | 0.00 | 0.00 | 0.00 | 96 | |
| 20260905163018 | -17 | 255 | 1.6 | 6.4 | 0.00 | 0.00 | 0.00 | 96 | |
| 20260905162518 | -17 | 66 | 0.0 | 3.2 | 0.00 | 0.00 | 0.00 | 96 | |
| 20260905162019 | -17 | 128 | 1.6 | 4.8 | 0.00 | 0.00 | 0.00 | 96 | |
| 20260905161519 | -17 | 283 | 1.6 | 4.8 | 0.00 | 0.00 | 0.00 | 96 | |
| 20260905161020 | -17 | 52 | 1.6 | 4.8 | 0.00 | 0.00 | 0.00 | 96 | |
| 20260905160518 | -17 | 23 | 0.0 | 3.2 | 0.00 | 0.00 | 0.00 | 96 | |
| 20260905160019 | -17 | 28 | 1.6 | 4.8 | 0.00 | 0.00 | 0.00 | 96 | |
| 20260905155518 | -17 | 236 | 1.6 | 4.8 | 0.00 | 0.00 | 0.00 | 96 | |
| 20260905155021 | -17 | 292 | 1.6 | 4.8 | 0.00 | 0.00 | 0.00 | 96 | |
| 20260905154519 | -17 | 278 | 3.2 | 8.0 | 0.00 | 0.00 | 0.00 | 96 | |
| 20260905154018 | -17 | 251 | 1.6 | 6.4 | 0.00 | 0.00 | 0.00 | 96 | |
| 20260905153519 | -17 | 241 | 1.6 | 6.4 | 0.00 | 0.00 | 0.00 | 96 | |
| 20260905153020 | -17 | 7 | 1.6 | 4.8 | 0.00 | 0.00 | 0.00 | 96 | |
| 20260905152523 | -17 | 350 | 0.0 | 4.8 | 0.00 | 0.00 | 0.00 | 96 | |
| 20260905152018 | -17 | 345 | 1.6 | 6.4 | 0.00 | 0.00 | 0.00 | 96 | |
| 20260905151519 | -17 | 356 | 1.6 | 6.4 | 0.00 | 0.00 | 0.00 | 96 | |
| 20260905151018 | -17 | 233 | 1.6 | 4.8 | 0.00 | 0.00 | 0.00 | 96 | |
| 20260905150519 | -17 | 360 | 1.6 | 6.4 | 0.00 | 0.00 | 0.00 | 96 | |
| 20260905150019 | -17 | 349 | 0.0 | 3.2 | 0.00 | 0.00 | 0.00 | 96 | |
| 20260905145519 | -17 | 167 | 1.6 | 4.8 | 0.00 | 0.00 | 0.00 | 96 | |
| 20260905145022 | -17 | 328 | 0.0 | 4.8 | 0.00 | 0.00 | 0.00 | 96 | |
| 20260905144519 | -17 | 331 | 0.0 | 4.8 | 0.00 | 0.00 | 0.00 | 96 | |
| 20260905144020 | -17 | 259 | 1.6 | 3.2 | 0.00 | 0.00 | 0.00 | 96 | |
| 20260905143518 | -17 | 171 | 1.6 | 8.0 | 0.00 | 0.00 | 0.00 | 96 | |
| 20260905143019 | -17 | 166 | 1.6 | 6.4 | 0.00 | 0.00 | 0.00 | 96 | |
| 20260905142516 | -17 | 161 | 1.6 | 4.8 | 0.00 | 0.00 | 0.00 | 96 | |
| 20260905142017 | -17 | 169 | 1.6 | 8.0 | 0.00 | 0.00 | 0.00 | 96 | |
| 20260905141517 | -17 | 284 | 0.0 | 3.2 | 0.00 | 0.00 | 0.00 | 96 | |
| 20260905141016 | -17 | 189 | 0.0 | 6.4 | 0.00 | 0.00 | 0.00 | 96 | |
| 20260905140516 | -17 | 170 | 0.0 | 4.8 | 0.00 | 0.00 | 0.00 | 96 | |
| 20260905140017 | -17 | 159 | 1.6 | 6.4 | 0.00 | 0.00 | 0.00 | 96 | |
| 20260905135516 | -17 | 181 | 0.0 | 4.8 | 0.00 | 0.00 | 0.00 | 96 | |
| 20260905135017 | -17 | 163 | 0.0 | 3.2 | 0.00 | 0.00 | 0.00 | 96 | |
| 20260905134517 | -17 | 360 | 0.0 | 0.0 | 0.00 | 0.00 | 0.00 | 96 | |
| 20260905134020 | -17 | 167 | 1.6 | 6.4 | 0.00 | 0.00 | 0.00 | 96 | |
| 20260905133520 | -17 | 167 | 1.6 | 4.8 | 0.00 | 0.00 | 0.00 | 96 | |
| 20260905133020 | -17 | 0.0 | 0.0 | 0.00 | 0.00 | 0.00 | 96 | ||
| 20260905132519 | -17 | 0.0 | 0.0 | 0.00 | 0.00 | 0.00 | 96 | ||
| 20260905132019 | -17 | 0.0 | 0.0 | 0.00 | 0.00 | 0.00 | 96 | ||
| 20260905131520 | -17 | 0.0 | 0.0 | 0.00 | 0.00 | 0.00 | 96 | ||
| 20260905131019 | -17 | 0.0 | 0.0 | 0.00 | 0.00 | 0.00 | 96 | ||
| 20260905130520 | -17 | 172 | 0.0 | 3.2 | 0.00 | 0.00 | 0.00 | 96 | |
| 20260905130021 | -17 | 0.0 | 0.0 | 0.00 | 0.00 | 0.00 | 96 | ||
| 20260905125520 | -17 | 159 | 0.0 | 3.2 | 0.00 | 0.00 | 0.00 | 96 | |
| 20260905125020 | -17 | 0.0 | 0.0 | 0.00 | 0.00 | 0.00 | 96 | ||
| 20260905124520 | -17 | 174 | 0.0 | 3.2 | 0.00 | 0.00 | 0.00 | 96 | |
| 20260905124020 | -17 | 169 | 3.2 | 4.8 | 0.00 | 0.00 | 0.00 | 96 | |
| 20260905123520 | -17 | 163 | 0.0 | 3.2 | 0.00 | 0.00 | 0.00 | 96 | |
| 20260905123023 | -17 | 0.0 | 0.0 | 0.00 | 0.00 | 0.00 | 96 | ||
| 20260905122520 | -17 | 0.0 | 0.0 | 0.00 | 0.00 | 0.00 | 96 | ||
| 20260905122115 | -17 | 0.0 | 0.0 | 0.00 | 0.00 | 0.00 | 96 | ||
| 20260905121520 | -17 | 0.0 | 0.0 | 0.00 | 0.00 | 0.00 | 96 | ||
| 20260905121018 | -17 | 0.0 | 0.0 | 0.00 | 0.00 | 0.00 | 96 | ||
| 20260905120518 | -17 | 0.0 | 0.0 | 0.00 | 0.00 | 0.00 | 96 | ||
| 20260905120018 | -17 | 0.0 | 0.0 | 0.00 | 0.00 | 0.00 | 96 | ||
| 20260905115518 | -17 | 0.0 | 0.0 | 0.00 | 0.00 | 0.00 | 96 | ||
| 20260905115017 | -17 | 0.0 | 0.0 | 0.00 | 0.00 | 0.00 | 96 | ||
| 20260905114520 | -17 | 0.0 | 0.0 | 0.00 | 0.00 | 0.00 | 96 | ||
| 20260905114017 | -17 | 0.0 | 0.0 | 0.00 | 0.00 | 0.00 | 96 | ||
| 20260905113518 | -17 | 0.0 | 0.0 | 0.00 | 0.00 | 0.00 | 96 | ||
| 20260905113018 | -17 | 0.0 | 0.0 | 0.00 | 0.00 | 0.00 | 96 | ||
| 20260905112519 | -17 | 0.0 | 0.0 | 0.00 | 0.00 | 0.00 | 96 | ||
| 20260905112017 | -17 | 0.0 | 0.0 | 0.00 | 0.00 | 0.00 | 96 | ||
| 20260905111517 | -17 | 0.0 | 0.0 | 0.00 | 0.00 | 0.00 | 96 | ||
| 20260905111019 | -17 | 0.0 | 0.0 | 0.00 | 0.00 | 0.00 | 96 | ||
| 20260905110518 | -17 | 0.0 | 0.0 | 0.00 | 0.00 | 0.00 | 96 | ||
| 20260905110018 | -17 | 0.0 | 0.0 | 0.00 | 0.00 | 0.00 | 96 | ||
| 20260905105518 | -17 | 0.0 | 0.0 | 0.00 | 0.00 | 0.00 | 96 | ||
| 20260905105018 | -17 | 14 | 0.0 | 3.2 | 0.00 | 0.00 | 0.00 | 96 | |
| 20260905104518 | -17 | 0.0 | 0.0 | 0.00 | 0.00 | 0.00 | 96 | ||
| 20260905104018 | -17 | 0.0 | 0.0 | 0.00 | 0.00 | 0.00 | 96 | ||
| 20260905103518 | -17 | 0.0 | 0.0 | 0.00 | 0.00 | 0.00 | 96 | ||
| 20260905103019 | -17 | 0.0 | 0.0 | 0.00 | 0.00 | 0.00 | 96 | ||
| 20260905102518 | -17 | 162 | 0.0 | 3.2 | 0.00 | 0.00 | 0.00 | 96 | |
| 20260905102018 | -17 | 167 | 0.0 | 1.6 | 0.00 | 0.00 | 0.00 | 96 | |
| 20260905101708 | -17 | 165 | 0.0 | 1.6 | 0.00 | 0.00 | 0.00 | 96 | |
| 20260905101019 | -17 | 0.0 | 0.0 | 0.00 | 0.00 | 0.00 | 96 | ||
| 20260905100519 | -17 | 0.0 | 0.0 | 0.00 | 0.00 | 0.00 | 96 | ||
| 20260905100018 | -17 | 0.0 | 0.0 | 0.00 | 0.00 | 0.00 | 96 | ||
| 20260905095520 | -17 | 0.0 | 0.0 | 0.00 | 0.00 | 0.00 | 96 | ||
| 20260905095019 | -17 | 0.0 | 0.0 | 0.00 | 0.00 | 0.00 | 96 | ||
| 20260905094519 | -17 | 0.0 | 0.0 | 0.00 | 0.00 | 0.00 | 96 | ||
| 20260905094019 | -17 | 0.0 | 0.0 | 0.00 | 0.00 | 0.00 | 96 | ||
| 20260905093519 | -17 | 0.0 | 0.0 | 0.00 | 0.00 | 0.00 | 96 | ||
| 20260905093019 | -17 | 0.0 | 0.0 | 0.00 | 0.00 | 0.00 | 96 | ||
| 20260905092520 | -17 | 0.0 | 0.0 | 0.00 | 0.00 | 0.00 | 96 | ||
| 20260905092019 | -17 | 0.0 | 0.0 | 0.00 | 0.00 | 0.00 | 96 | ||
| 20260905091519 | -17 | 0.0 | 0.0 | 0.00 | 0.00 | 0.00 | 96 | ||
| 20260905091019 | -17 | 0.0 | 0.0 | 0.00 | 0.00 | 0.00 | 96 | ||
| 20260905090519 | -17 | 0.0 | 0.0 | 0.00 | 0.00 | 0.00 | 96 | ||
| 20260905090016 | -17 | 0.0 | 0.0 | 0.00 | 0.00 | 0.00 | 96 | ||
| 20260905085516 | -17 | 0.0 | 0.0 | 0.00 | 0.00 | 0.00 | 96 | ||
| 20260905085016 | -17 | 0.0 | 0.0 | 0.00 | 0.00 | 0.00 | 96 | ||
| 20260905084516 | -17 | 0.0 | 0.0 | 0.00 | 0.00 | 0.00 | 96 | ||
| 20260905084020 | -17 | 0.0 | 0.0 | 0.00 | 0.00 | 0.00 | 96 | ||
| 20260905083520 | -17 | 0.0 | 0.0 | 0.00 | 0.00 | 0.00 | 96 | ||
| 20260905083019 | -17 | 0.0 | 0.0 | 0.00 | 0.00 | 0.00 | 96 | ||
| 20260905082519 | -17 | 0.0 | 0.0 | 0.00 | 0.00 | 0.00 | 96 | ||
| 20260905082020 | -17 | 0.0 | 0.0 | 0.00 | 0.00 | 0.00 | 96 | ||
| 20260905081520 | -17 | 0.0 | 0.0 | 0.00 | 0.00 | 0.00 | 96 | ||
| 20260905081019 | -17 | 170 | 1.6 | 3.2 | 0.00 | 0.00 | 0.00 | 96 | |
| 20260905080519 | -17 | 170 | 1.6 | 4.8 | 0.00 | 0.00 | 0.00 | 96 | |
| 20260905080020 | -17 | 0.0 | 0.0 | 0.00 | 0.00 | 0.00 | 96 | ||
| 20260905075520 | -17 | 0.0 | 0.0 | 0.00 | 0.00 | 0.00 | 96 | ||
| 20260905075019 | -17 | 0.0 | 0.0 | 0.00 | 0.00 | 0.00 | 96 | ||
| 20260905074520 | -17 | 360 | 0.0 | 0.0 | 0.00 | 0.00 | 0.00 | 96 | |
| 20260905074019 | -17 | 15 | 0.0 | 3.2 | 0.00 | 0.00 | 0.00 | 96 | |
| 20260905073520 | -17 | 0.0 | 0.0 | 0.00 | 0.00 | 0.00 | 96 | ||
| 20260905073020 | -17 | 0.0 | 0.0 | 0.00 | 0.00 | 0.00 | 96 | ||
| 20260905072521 | -17 | 0.0 | 0.0 | 0.00 | 0.00 | 0.00 | 96 | ||
| 20260905072020 | -17 | 0.0 | 0.0 | 0.00 | 0.00 | 0.00 | 96 | ||
| 20260905071521 | -17 | 0.0 | 0.0 | 0.00 | 0.00 | 0.00 | 96 | ||
| 20260905071020 | -17 | 0.0 | 0.0 | 0.00 | 0.00 | 0.00 | 96 | ||
| 20260905070520 | -17 | 0.0 | 0.0 | 0.00 | 0.00 | 0.00 | 96 |